Time;durP1;ratioP1;P1;durP2;ratioP2;P2;SDS_P1;SDS_P2;PMS_P1;PMS_P2;Temp;Humidity;BMP_temperature;BMP_pressure;BME280_temperature;BME280_humidity;BME280_pressure;Samples;Min_cycle;Max_cycle;Signal;HPM_P1;HPM_P2
2023/12/19 00:00:42;;;;;;;5.43;3.90;;;;;;;;;;5056985;28;20041;-81
2023/12/19 00:03:07;;;;;;;8.55;4.53;;;;;;;;;;5043853;28;20032;-81
2023/12/19 00:05:33;;;;;;;5.40;3.00;;;;;;;;;;5047687;28;20415;-83
2023/12/19 00:07:58;;;;;;;7.05;3.55;;;;;;;;;;5060024;28;20057;-81
2023/12/19 00:10:23;;;;;;;5.07;3.38;;;;;;;;;;5062761;28;20512;-82
2023/12/19 00:12:48;;;;;;;5.20;3.15;;;;;;;;;;5054596;28;20033;-80
2023/12/19 00:15:14;;;;;;;3.85;3.00;;;;;;;;;;5050876;28;20173;-82
2023/12/19 00:17:40;;;;;;;2.70;2.15;;;;;;;;;;5040176;28;20017;-81
2023/12/19 00:20:06;;;;;;;5.65;2.13;;;;;;;;;;5054683;28;20079;-82
2023/12/19 00:22:31;;;;;;;2.67;1.95;;;;;;;;;;5056524;28;20033;-81
2023/12/19 00:24:57;;;;;;;1.58;1.33;;;;;;;;;;5052472;28;20056;-82
2023/12/19 00:27:22;;;;;;;1.50;1.40;;;;;;;;;;5055728;28;20036;-82
2023/12/19 00:29:47;;;;;;;3.70;1.27;;;;;;;;;;5033329;28;20020;-82
2023/12/19 00:32:12;;;;;;;2.42;1.63;;;;;;;;;;5048303;28;20095;-81
2023/12/19 00:34:38;;;;;;;1.70;1.20;;;;;;;;;;5038086;28;20041;-81
2023/12/19 00:37:03;;;;;;;1.70;1.60;;;;;;;;;;5053682;28;20043;-83
2023/12/19 00:39:28;;;;;;;2.47;1.27;;;;;;;;;;5048396;28;20096;-81
2023/12/19 00:41:54;;;;;;;1.95;1.40;;;;;;;;;;5048006;28;20032;-83
2023/12/19 00:44:19;;;;;;;2.15;1.48;;;;;;;;;;5048090;28;20041;-82
2023/12/19 00:46:44;;;;;;;1.40;1.30;;;;;;;;;;5047900;28;20040;-81
2023/12/19 00:49:10;;;;;;;3.88;1.30;;;;;;;;;;5055315;28;20554;-83
2023/12/19 00:51:36;;;;;;;2.85;1.50;;;;;;;;;;5028605;28;20034;-81
2023/12/19 00:54:02;;;;;;;1.95;0.93;;;;;;;;;;5050247;28;20021;-82
2023/12/19 00:56:27;;;;;;;6.80;1.75;;;;;;;;;;5029374;28;20532;-82
2023/12/19 00:58:52;;;;;;;2.17;1.50;;;;;;;;;;5055487;28;20231;-80
2023/12/19 01:01:22;;;;;;;1.40;1.30;;;;;;;;;;5055457;28;20041;-83
2023/12/19 01:03:48;;;;;;;2.30;1.92;;;;;;;;;;5047498;28;20033;-83
2023/12/19 01:06:13;;;;;;;2.88;1.70;;;;;;;;;;5055147;28;20167;-83
2023/12/19 01:08:38;;;;;;;1.48;1.38;;;;;;;;;;5034918;28;20049;-80
2023/12/19 01:11:03;;;;;;;1.17;1.08;;;;;;;;;;5053443;28;20062;-82
2023/12/19 01:13:29;;;;;;;2.10;1.58;;;;;;;;;;5042973;28;20111;-82
2023/12/19 01:15:54;;;;;;;3.80;1.30;;;;;;;;;;5039758;28;20044;-83
2023/12/19 01:18:19;;;;;;;1.38;1.25;;;;;;;;;;5048748;28;20048;-82
2023/12/19 01:20:47;;;;;;;2.92;1.33;;;;;;;;;;5058085;28;20032;-81
2023/12/19 01:23:12;;;;;;;1.85;1.42;;;;;;;;;;5040740;28;20545;-82
2023/12/19 01:25:39;;;;;;;1.67;1.58;;;;;;;;;;5051970;28;20492;-83
2023/12/19 01:28:05;;;;;;;1.60;1.50;;;;;;;;;;5055204;28;20033;-83
2023/12/19 01:30:30;;;;;;;2.13;1.33;;;;;;;;;;5029110;28;20611;-82
2023/12/19 01:32:55;;;;;;;2.25;1.50;;;;;;;;;;5051746;28;20029;-82
2023/12/19 01:35:20;;;;;;;2.22;1.38;;;;;;;;;;5050110;28;20116;-82
2023/12/19 01:37:45;;;;;;;1.55;1.15;;;;;;;;;;5032925;28;20350;-81
2023/12/19 01:40:11;;;;;;;4.18;1.30;;;;;;;;;;5053805;28;20105;-82
2023/12/19 01:42:36;;;;;;;2.38;1.58;;;;;;;;;;5054702;28;20091;-81
2023/12/19 01:45:12;;;;;;;3.60;1.67;;;;;;;;;;5047761;28;20025;-81
2023/12/19 01:47:44;;;;;;;2.22;1.50;;;;;;;;;;5054622;28;20043;-84
2023/12/19 01:50:11;;;;;;;1.98;1.40;;;;;;;;;;5053868;28;20172;-82
2023/12/19 01:52:40;;;;;;;2.22;1.30;;;;;;;;;;5041797;28;20036;-81
2023/12/19 01:55:07;;;;;;;1.10;1.10;;;;;;;;;;5044500;28;20553;-82
2023/12/19 01:57:33;;;;;;;2.17;1.10;;;;;;;;;;5036767;28;20029;-81
2023/12/19 01:59:59;;;;;;;1.98;1.00;;;;;;;;;;5052406;28;20494;-83
2023/12/19 02:02:25;;;;;;;1.00;1.00;;;;;;;;;;5058740;28;20029;-81
2023/12/19 02:04:52;;;;;;;3.55;1.73;;;;;;;;;;5032343;28;20049;-81
2023/12/19 02:07:18;;;;;;;1.38;1.27;;;;;;;;;;5054283;28;20049;-81
2023/12/19 02:09:43;;;;;;;1.60;1.30;;;;;;;;;;5031395;28;20113;-81
2023/12/19 02:12:08;;;;;;;2.53;1.33;;;;;;;;;;5028892;28;20032;-80
2023/12/19 02:14:34;;;;;;;2.50;1.60;;;;;;;;;;5050212;28;20071;-84
2023/12/19 02:16:59;;;;;;;2.05;1.42;;;;;;;;;;5051759;28;20101;-83
2023/12/19 02:19:25;;;;;;;3.78;1.80;;;;;;;;;;5051394;28;20089;-84
2023/12/19 02:21:50;;;;;;;2.85;1.65;;;;;;;;;;5034124;28;20052;-82
2023/12/19 02:24:15;;;;;;;1.73;1.35;;;;;;;;;;5051859;28;20036;-82
2023/12/19 02:26:41;;;;;;;4.05;2.05;;;;;;;;;;5055342;28;20033;-83
2023/12/19 02:29:06;;;;;;;1.13;1.10;;;;;;;;;;5054225;28;20044;-83
2023/12/19 02:31:31;;;;;;;1.00;0.90;;;;;;;;;;5051929;28;20040;-82
2023/12/19 02:33:57;;;;;;;2.42;1.33;;;;;;;;;;5051369;28;20086;-82
2023/12/19 02:36:23;;;;;;;1.23;1.23;;;;;;;;;;5052033;28;20059;-81
2023/12/19 02:38:48;;;;;;;1.13;1.02;;;;;;;;;;5060367;28;20075;-83
2023/12/19 02:41:13;;;;;;;1.27;1.10;;;;;;;;;;5053161;28;20527;-83
2023/12/19 02:43:39;;;;;;;1.08;1.08;;;;;;;;;;5036455;28;20037;-82
2023/12/19 02:46:04;;;;;;;2.47;1.80;;;;;;;;;;5052702;28;20053;-82
2023/12/19 02:48:29;;;;;;;1.88;1.40;;;;;;;;;;5037618;28;20099;-82
2023/12/19 02:50:55;;;;;;;2.05;1.38;;;;;;;;;;5044139;28;20028;-83
2023/12/19 02:53:20;;;;;;;1.58;1.13;;;;;;;;;;5036892;28;20040;-84
2023/12/19 02:55:45;;;;;;;2.38;1.65;;;;;;;;;;5051524;28;20793;-83
2023/12/19 02:58:11;;;;;;;2.83;1.33;;;;;;;;;;5054913;28;20033;-81
2023/12/19 03:00:36;;;;;;;1.67;1.50;;;;;;;;;;5048426;28;20041;-82
2023/12/19 03:03:01;;;;;;;1.70;1.35;;;;;;;;;;5058892;28;20017;-82
2023/12/19 03:05:26;;;;;;;3.47;1.20;;;;;;;;;;5051380;28;20096;-83
2023/12/19 03:07:51;;;;;;;1.42;1.27;;;;;;;;;;5055807;28;20029;-82
2023/12/19 03:10:17;;;;;;;1.10;1.00;;;;;;;;;;5031869;28;20057;-81
2023/12/19 03:12:42;;;;;;;1.17;1.13;;;;;;;;;;5056975;28;20493;-81
2023/12/19 03:15:08;;;;;;;1.00;1.00;;;;;;;;;;5052382;28;20029;-82
2023/12/19 03:17:33;;;;;;;1.95;0.80;;;;;;;;;;5062507;28;20049;-82
2023/12/19 03:19:58;;;;;;;1.10;0.88;;;;;;;;;;5057531;28;21084;-82
2023/12/19 03:22:24;;;;;;;0.77;0.77;;;;;;;;;;5043344;28;20401;-82
2023/12/19 03:24:49;;;;;;;0.90;0.90;;;;;;;;;;5041657;28;20071;-82
2023/12/19 03:27:14;;;;;;;2.33;1.20;;;;;;;;;;5057822;28;20032;-84
2023/12/19 03:29:40;;;;;;;1.20;1.10;;;;;;;;;;5058314;28;20017;-82
2023/12/19 03:32:07;;;;;;;1.10;1.00;;;;;;;;;;5053205;28;20049;-84
2023/12/19 03:34:32;;;;;;;3.22;1.05;;;;;;;;;;5062335;28;20399;-81
2023/12/19 03:36:58;;;;;;;1.73;1.30;;;;;;;;;;5033990;28;20056;-82
2023/12/19 03:39:23;;;;;;;1.30;1.20;;;;;;;;;;5056213;28;20065;-83
2023/12/19 03:41:49;;;;;;;1.20;1.08;;;;;;;;;;5060134;28;20104;-82
2023/12/19 03:44:15;;;;;;;1.45;1.20;;;;;;;;;;5037887;28;20056;-81
2023/12/19 03:46:41;;;;;;;1.38;1.27;;;;;;;;;;5051795;28;20053;-81
2023/12/19 03:49:07;;;;;;;1.77;1.10;;;;;;;;;;5049946;28;20045;-83
2023/12/19 03:51:32;;;;;;;1.35;1.25;;;;;;;;;;5057365;28;20078;-83
2023/12/19 03:53:57;;;;;;;1.52;1.20;;;;;;;;;;5054986;28;20021;-83
2023/12/19 03:56:22;;;;;;;1.63;1.50;;;;;;;;;;5037304;28;20112;-82
2023/12/19 04:01:18;;;;;;;1.77;1.50;;;;;;;;;;5055637;28;20048;-79
2023/12/19 04:03:44;;;;;;;2.30;1.40;;;;;;;;;;5039575;28;20029;-79
2023/12/19 04:06:09;;;;;;;1.02;1.00;;;;;;;;;;5048684;28;20009;-79
2023/12/19 04:08:34;;;;;;;1.30;1.20;;;;;;;;;;5051662;28;20035;-79
2023/12/19 04:11:00;;;;;;;1.75;1.00;;;;;;;;;;5036998;28;20040;-79
2023/12/19 04:13:25;;;;;;;3.45;1.20;;;;;;;;;;5045036;28;20054;-79
2023/12/19 04:15:50;;;;;;;1.00;1.00;;;;;;;;;;5056673;28;20109;-79
2023/12/19 04:18:16;;;;;;;4.35;1.23;;;;;;;;;;5048946;28;20024;-78
2023/12/19 04:20:41;;;;;;;2.03;1.25;;;;;;;;;;5050428;28;20192;-78
2023/12/19 04:23:06;;;;;;;2.05;1.02;;;;;;;;;;5035863;28;20037;-79
2023/12/19 04:25:32;;;;;;;0.75;0.75;;;;;;;;;;5052386;28;20174;-79
2023/12/19 04:27:57;;;;;;;1.25;1.05;;;;;;;;;;5033234;28;20116;-79
2023/12/19 04:30:22;;;;;;;1.42;1.02;;;;;;;;;;5057208;28;20041;-79
2023/12/19 04:32:48;;;;;;;0.70;0.70;;;;;;;;;;5040045;28;20089;-79
2023/12/19 04:35:13;;;;;;;0.80;0.80;;;;;;;;;;5049731;28;20025;-79
2023/12/19 04:37:39;;;;;;;1.00;0.98;;;;;;;;;;5035495;28;20036;-78
2023/12/19 04:40:05;;;;;;;2.10;1.02;;;;;;;;;;5055263;28;20055;-79
2023/12/19 04:42:30;;;;;;;0.85;0.85;;;;;;;;;;5036475;28;20121;-79
2023/12/19 04:44:55;;;;;;;1.92;0.90;;;;;;;;;;5049861;28;20013;-79
2023/12/19 04:47:21;;;;;;;1.02;0.90;;;;;;;;;;5037231;28;20040;-79
2023/12/19 04:49:46;;;;;;;1.65;1.05;;;;;;;;;;5055453;28;20047;-79
2023/12/19 04:52:15;;;;;;;0.90;0.90;;;;;;;;;;5054742;28;20034;-79
2023/12/19 04:54:40;;;;;;;0.90;0.90;;;;;;;;;;5053646;28;20047;-80
2023/12/19 04:57:06;;;;;;;1.00;1.00;;;;;;;;;;5052048;28;20025;-79
2023/12/19 04:59:32;;;;;;;1.05;1.00;;;;;;;;;;5054692;28;20464;-78
2023/12/19 05:01:57;;;;;;;1.30;1.20;;;;;;;;;;5055774;28;20029;-78
2023/12/19 05:04:22;;;;;;;1.85;1.13;;;;;;;;;;5050368;28;20033;-76
2023/12/19 05:06:48;;;;;;;3.08;2.58;;;;;;;;;;5042998;28;20029;-76
2023/12/19 05:09:13;;;;;;;1.48;1.38;;;;;;;;;;5048332;28;20025;-77
2023/12/19 05:11:41;;;;;;;1.00;1.00;;;;;;;;;;5050242;28;20115;-76
2023/12/19 05:14:06;;;;;;;1.13;1.13;;;;;;;;;;5030905;28;20029;-76
2023/12/19 05:16:32;;;;;;;2.35;1.10;;;;;;;;;;5042854;28;20497;-78
2023/12/19 05:18:57;;;;;;;1.63;1.20;;;;;;;;;;5052549;28;20033;-76
2023/12/19 05:21:22;;;;;;;2.65;1.00;;;;;;;;;;5032466;28;20040;-77
2023/12/19 05:23:48;;;;;;;2.35;1.48;;;;;;;;;;5050678;28;20028;-76
2023/12/19 05:26:13;;;;;;;1.10;1.10;;;;;;;;;;5050120;28;20029;-77
2023/12/19 05:28:39;;;;;;;1.75;1.27;;;;;;;;;;5048380;28;20059;-77
2023/12/19 05:31:05;;;;;;;1.30;1.17;;;;;;;;;;5049544;28;20083;-77
2023/12/19 05:33:33;;;;;;;1.13;1.02;;;;;;;;;;5042401;28;20036;-78
2023/12/19 05:35:58;;;;;;;1.20;1.20;;;;;;;;;;5048906;28;20057;-78
2023/12/19 05:38:23;;;;;;;2.10;1.25;;;;;;;;;;5025261;28;20516;-78
2023/12/19 05:40:51;;;;;;;1.23;1.13;;;;;;;;;;5051006;28;20431;-78
2023/12/19 05:43:17;;;;;;;1.20;1.10;;;;;;;;;;5049106;28;20464;-78
2023/12/19 05:45:42;;;;;;;1.17;1.17;;;;;;;;;;5031133;28;20118;-77
2023/12/19 05:48:07;;;;;;;1.42;1.10;;;;;;;;;;5048156;28;20025;-77
2023/12/19 05:50:33;;;;;;;0.98;0.98;;;;;;;;;;5052330;28;20017;-78
2023/12/19 05:52:59;;;;;;;1.17;1.02;;;;;;;;;;5051604;28;20029;-78
2023/12/19 05:55:24;;;;;;;1.80;1.35;;;;;;;;;;5025220;28;20037;-78
2023/12/19 05:57:53;;;;;;;1.58;1.10;;;;;;;;;;5051216;28;20067;-78
2023/12/19 06:00:18;;;;;;;0.90;0.90;;;;;;;;;;5050802;28;20100;-78
2023/12/19 06:02:44;;;;;;;0.90;0.90;;;;;;;;;;5051359;28;20056;-78
2023/12/19 06:05:09;;;;;;;0.90;0.90;;;;;;;;;;5050610;28;20110;-77
2023/12/19 06:07:36;;;;;;;2.20;1.10;;;;;;;;;;5048417;28;20492;-77
2023/12/19 06:10:02;;;;;;;0.70;0.70;;;;;;;;;;5047703;28;20060;-77
2023/12/19 06:12:28;;;;;;;3.13;1.20;;;;;;;;;;5040499;28;20041;-77
2023/12/19 06:14:53;;;;;;;0.90;0.90;;;;;;;;;;5042315;28;20040;-77
2023/12/19 06:17:18;;;;;;;0.80;0.80;;;;;;;;;;5052118;28;20403;-77
2023/12/19 06:19:44;;;;;;;2.83;1.02;;;;;;;;;;5034206;28;20120;-77
2023/12/19 06:22:10;;;;;;;1.17;1.08;;;;;;;;;;5043970;28;20036;-77
2023/12/19 06:24:35;;;;;;;0.90;0.80;;;;;;;;;;5030809;28;20052;-77
2023/12/19 06:27:01;;;;;;;1.13;1.00;;;;;;;;;;5034907;28;20033;-78
2023/12/19 06:29:26;;;;;;;0.75;0.75;;;;;;;;;;5052567;28;20378;-78
2023/12/19 06:31:51;;;;;;;1.45;0.95;;;;;;;;;;5051661;28;20030;-79
2023/12/19 06:34:17;;;;;;;2.33;1.38;;;;;;;;;;5032843;28;20037;-79
2023/12/19 06:36:42;;;;;;;0.95;0.70;;;;;;;;;;5032696;28;20091;-79
2023/12/19 06:39:08;;;;;;;0.90;0.90;;;;;;;;;;5051663;28;20040;-78
2023/12/19 06:41:34;;;;;;;0.60;0.52;;;;;;;;;;5050896;28;20025;-79
2023/12/19 06:43:59;;;;;;;0.70;0.70;;;;;;;;;;5036702;28;20837;-79
2023/12/19 06:46:24;;;;;;;0.63;0.63;;;;;;;;;;5049468;28;20040;-79
2023/12/19 06:48:50;;;;;;;0.75;0.75;;;;;;;;;;5051536;28;20781;-79
2023/12/19 06:51:27;;;;;;;0.80;0.70;;;;;;;;;;5033868;28;20214;-79
2023/12/19 06:53:54;;;;;;;0.70;0.70;;;;;;;;;;5026525;28;20017;-79
2023/12/19 06:56:20;;;;;;;0.50;0.50;;;;;;;;;;5033355;28;20056;-78
2023/12/19 06:58:45;;;;;;;0.50;0.50;;;;;;;;;;5054417;28;20028;-79
2023/12/19 07:01:11;;;;;;;0.65;0.40;;;;;;;;;;5034239;28;20033;-80
2023/12/19 07:03:36;;;;;;;0.50;0.50;;;;;;;;;;5030843;28;20034;-78
2023/12/19 07:06:02;;;;;;;1.02;0.65;;;;;;;;;;5040387;28;20036;-79
2023/12/19 07:08:27;;;;;;;0.68;0.68;;;;;;;;;;5051325;28;20035;-79
2023/12/19 07:10:53;;;;;;;0.80;0.80;;;;;;;;;;5038429;28;20021;-78
2023/12/19 07:13:18;;;;;;;0.70;0.70;;;;;;;;;;5038909;28;20029;-79
2023/12/19 07:15:43;;;;;;;0.60;0.60;;;;;;;;;;5041977;28;20037;-78
2023/12/19 07:18:08;;;;;;;5.18;0.70;;;;;;;;;;5048060;28;20033;-78
2023/12/19 07:20:34;;;;;;;3.83;0.63;;;;;;;;;;5030694;28;20032;-79
2023/12/19 07:22:59;;;;;;;0.70;0.70;;;;;;;;;;5036087;28;20033;-79
2023/12/19 07:25:25;;;;;;;0.50;0.50;;;;;;;;;;5048495;28;20036;-79
2023/12/19 07:27:50;;;;;;;0.57;0.57;;;;;;;;;;5040787;28;20040;-78
2023/12/19 07:30:15;;;;;;;0.63;0.63;;;;;;;;;;5054297;28;20045;-79
2023/12/19 07:32:41;;;;;;;0.70;0.60;;;;;;;;;;5049034;28;20028;-79
2023/12/19 07:35:07;;;;;;;0.63;0.50;;;;;;;;;;5051313;28;20044;-79
2023/12/19 07:37:32;;;;;;;0.80;0.80;;;;;;;;;;5037389;28;20052;-79
2023/12/19 07:39:59;;;;;;;3.20;0.40;;;;;;;;;;5055962;28;20040;-79
2023/12/19 07:42:24;;;;;;;0.50;0.50;;;;;;;;;;5035444;28;20035;-77
2023/12/19 07:44:51;;;;;;;0.57;0.57;;;;;;;;;;5053990;28;20604;-80
2023/12/19 07:47:17;;;;;;;0.40;0.40;;;;;;;;;;5055154;28;20033;-81
2023/12/19 07:49:42;;;;;;;0.40;0.40;;;;;;;;;;5050530;28;20267;-80
2023/12/19 07:52:08;;;;;;;0.40;0.40;;;;;;;;;;5056547;28;20041;-80
2023/12/19 07:54:33;;;;;;;0.50;0.50;;;;;;;;;;5051514;28;20037;-79
2023/12/19 07:56:58;;;;;;;0.50;0.50;;;;;;;;;;5044166;28;20080;-77
2023/12/19 07:59:23;;;;;;;1.05;0.82;;;;;;;;;;5031076;28;20033;-78
2023/12/19 08:01:49;;;;;;;0.90;0.70;;;;;;;;;;5032367;28;20393;-77
2023/12/19 08:04:14;;;;;;;1.05;0.68;;;;;;;;;;5046842;28;20124;-77
2023/12/19 08:06:41;;;;;;;1.05;0.90;;;;;;;;;;5048480;28;20087;-77
2023/12/19 08:09:10;;;;;;;1.15;0.80;;;;;;;;;;5049441;28;20061;-77
2023/12/19 08:11:35;;;;;;;0.77;0.70;;;;;;;;;;5038631;28;20040;-77
2023/12/19 08:14:01;;;;;;;1.23;1.00;;;;;;;;;;5049705;28;20041;-77
2023/12/19 08:16:26;;;;;;;0.60;0.60;;;;;;;;;;5027672;28;20044;-77
2023/12/19 08:18:51;;;;;;;0.50;0.50;;;;;;;;;;5043044;28;20400;-77
2023/12/19 08:21:17;;;;;;;0.40;0.40;;;;;;;;;;5048162;28;20029;-77
2023/12/19 08:23:44;;;;;;;0.65;0.65;;;;;;;;;;5046066;28;20033;-77
2023/12/19 08:26:10;;;;;;;0.75;0.75;;;;;;;;;;5027046;28;20123;-77
2023/12/19 08:28:35;;;;;;;0.82;0.82;;;;;;;;;;5043898;28;20120;-77
2023/12/19 08:31:03;;;;;;;0.68;0.68;;;;;;;;;;5022178;28;20044;-77
2023/12/19 08:33:28;;;;;;;2.80;1.00;;;;;;;;;;5043337;28;20025;-77
2023/12/19 08:35:54;;;;;;;2.03;1.00;;;;;;;;;;5046351;28;20078;-77
2023/12/19 08:38:19;;;;;;;1.42;0.98;;;;;;;;;;5028335;28;20087;-78
2023/12/19 08:40:45;;;;;;;1.60;1.00;;;;;;;;;;5048187;28;20536;-77
2023/12/19 08:43:11;;;;;;;0.73;0.73;;;;;;;;;;5047197;28;20076;-77
2023/12/19 08:45:37;;;;;;;1.02;0.65;;;;;;;;;;5044705;28;20033;-77
2023/12/19 08:48:04;;;;;;;0.65;0.60;;;;;;;;;;5047341;28;20542;-77
2023/12/19 08:50:30;;;;;;;0.98;0.85;;;;;;;;;;5048788;28;20049;-77
2023/12/19 08:52:55;;;;;;;0.63;0.63;;;;;;;;;;5048356;28;20043;-77
2023/12/19 08:55:21;;;;;;;1.92;1.70;;;;;;;;;;5047249;28;20037;-77
2023/12/19 08:57:46;;;;;;;2.67;1.17;;;;;;;;;;5046422;28;20119;-77
2023/12/19 09:00:15;;;;;;;1.05;0.93;;;;;;;;;;5048074;28;20111;-77
2023/12/19 09:02:43;;;;;;;0.75;0.60;;;;;;;;;;5047302;28;20085;-77
2023/12/19 09:05:27;;;;;;;0.57;0.55;;;;;;;;;;5047652;28;20041;-77
2023/12/19 09:07:52;;;;;;;0.73;0.63;;;;;;;;;;5044544;28;20189;-77
2023/12/19 09:10:17;;;;;;;0.57;0.57;;;;;;;;;;5031298;28;20037;-78
2023/12/19 09:12:43;;;;;;;2.83;0.77;;;;;;;;;;5043172;28;20059;-78
2023/12/19 09:15:10;;;;;;;0.75;0.75;;;;;;;;;;5051573;28;20029;-78
2023/12/19 09:17:35;;;;;;;1.23;0.90;;;;;;;;;;5053274;28;20502;-78
2023/12/19 09:20:05;;;;;;;0.70;0.70;;;;;;;;;;5031736;28;20041;-78
2023/12/19 09:22:33;;;;;;;0.70;0.70;;;;;;;;;;5032171;28;20123;-79
2023/12/19 09:24:59;;;;;;;3.17;0.90;;;;;;;;;;5047314;28;20033;-79
2023/12/19 09:27:27;;;;;;;1.05;0.93;;;;;;;;;;5051786;28;20436;-79
2023/12/19 09:29:52;;;;;;;0.77;0.77;;;;;;;;;;5047516;28;20025;-79
2023/12/19 09:32:18;;;;;;;0.70;0.70;;;;;;;;;;5034444;28;20044;-80
2023/12/19 09:34:44;;;;;;;0.80;0.80;;;;;;;;;;5053500;28;20071;-80
2023/12/19 09:37:10;;;;;;;4.88;0.80;;;;;;;;;;5049131;28;20065;-80
2023/12/19 09:39:35;;;;;;;0.77;0.77;;;;;;;;;;5035109;28;20381;-81
2023/12/19 09:42:02;;;;;;;0.70;0.70;;;;;;;;;;5052483;28;20044;-81
2023/12/19 09:44:28;;;;;;;1.58;0.60;;;;;;;;;;5053811;28;20045;-80
2023/12/19 09:46:53;;;;;;;0.70;0.70;;;;;;;;;;5031345;28;20528;-81
2023/12/19 09:49:24;;;;;;;0.85;0.60;;;;;;;;;;5054487;28;20047;-82
2023/12/19 09:51:54;;;;;;;0.88;0.68;;;;;;;;;;5043108;28;20503;-82
2023/12/19 09:54:23;;;;;;;1.55;0.70;;;;;;;;;;5056711;28;20182;-81
2023/12/19 09:56:49;;;;;;;1.00;0.90;;;;;;;;;;5048178;28;20021;-80
2023/12/19 09:59:19;;;;;;;0.80;0.80;;;;;;;;;;5045239;22;20039;-82
2023/12/19 10:01:45;;;;;;;0.98;0.90;;;;;;;;;;5024733;28;20045;-83
2023/12/19 10:04:13;;;;;;;0.60;0.60;;;;;;;;;;5030527;28;20025;-85
2023/12/19 10:07:00;;;;;;;3.75;0.80;;;;;;;;;;5029585;28;20033;-81
2023/12/19 10:09:26;;;;;;;5.35;0.80;;;;;;;;;;5032715;28;20097;-84
2023/12/19 10:12:10;;;;;;;4.18;1.08;;;;;;;;;;5027491;28;20056;-83
2023/12/19 10:14:35;;;;;;;8.57;1.73;;;;;;;;;;5028975;28;20037;-83
2023/12/19 10:17:04;;;;;;;3.70;1.50;;;;;;;;;;5016934;28;20048;-80
2023/12/19 10:19:30;;;;;;;2.65;1.65;;;;;;;;;;5005696;28;20037;-85
2023/12/19 10:22:09;;;;;;;2.22;1.77;;;;;;;;;;5017056;28;20042;-80
2023/12/19 10:24:35;;;;;;;1.50;1.40;;;;;;;;;;5024526;28;20058;-85
2023/12/19 10:27:02;;;;;;;1.88;1.75;;;;;;;;;;5019290;28;20500;-84
2023/12/19 10:29:36;;;;;;;1.30;1.20;;;;;;;;;;5016220;28;20088;-82
2023/12/19 10:32:19;;;;;;;0.90;0.80;;;;;;;;;;5003325;28;20034;-84
2023/12/19 10:34:45;;;;;;;0.70;0.70;;;;;;;;;;5007110;28;20040;-85
2023/12/19 10:37:12;;;;;;;4.78;1.00;;;;;;;;;;5025293;28;20065;-86
2023/12/19 10:39:40;;;;;;;1.38;1.27;;;;;;;;;;5026632;28;20038;-85
2023/12/19 10:42:06;;;;;;;1.65;0.90;;;;;;;;;;5025743;28;20029;-85
2023/12/19 10:44:32;;;;;;;2.38;0.90;;;;;;;;;;5006269;28;20314;-84
2023/12/19 10:47:01;;;;;;;0.80;0.80;;;;;;;;;;5025043;28;20049;-85
2023/12/19 10:49:26;;;;;;;1.60;0.98;;;;;;;;;;5016860;28;20076;-84
2023/12/19 10:51:56;;;;;;;1.20;1.10;;;;;;;;;;5016336;28;20030;-84
2023/12/19 10:54:24;;;;;;;0.80;0.80;;;;;;;;;;5021138;28;20056;-86
2023/12/19 10:57:11;;;;;;;1.15;0.90;;;;;;;;;;5021261;28;20025;-84
2023/12/19 10:59:45;;;;;;;3.33;1.05;;;;;;;;;;4999483;28;20053;-84
2023/12/19 11:02:29;;;;;;;;;;;;;;;;;;5018461;28;20097;-83
2023/12/19 11:05:16;;;;;;;2.85;2.53;;;;;;;;;;5012957;28;19913;-83
2023/12/19 11:07:43;;;;;;;2.78;1.38;;;;;;;;;;5019546;28;20405;-85
2023/12/19 11:10:10;;;;;;;0.60;0.60;;;;;;;;;;5021040;28;20128;-85
2023/12/19 11:12:36;;;;;;;0.90;0.90;;;;;;;;;;4998073;28;20125;-83
2023/12/19 11:15:05;;;;;;;0.73;0.73;;;;;;;;;;5017189;28;20061;-84
2023/12/19 11:17:30;;;;;;;0.70;0.70;;;;;;;;;;5019721;28;20046;-85
2023/12/19 11:19:56;;;;;;;0.85;0.63;;;;;;;;;;5016301;28;20038;-85
2023/12/19 11:22:45;;;;;;;5.03;0.70;;;;;;;;;;5020338;28;20079;-84
2023/12/19 11:25:22;;;;;;;2.28;0.68;;;;;;;;;;5014066;28;20030;-83
2023/12/19 11:27:55;;;;;;;0.80;0.80;;;;;;;;;;5016772;28;20454;-84
2023/12/19 11:30:36;;;;;;;0.90;0.80;;;;;;;;;;4998929;28;20033;-82
2023/12/19 11:33:11;;;;;;;0.50;0.50;;;;;;;;;;5013786;28;20398;-84
2023/12/19 11:35:36;;;;;;;0.52;0.50;;;;;;;;;;5015912;28;20513;-83
2023/12/19 11:38:26;;;;;;;0.45;0.45;;;;;;;;;;5002133;28;20038;-83
2023/12/19 11:40:53;;;;;;;0.52;0.52;;;;;;;;;;5015841;28;20406;-84
2023/12/19 11:43:31;;;;;;;0.52;0.52;;;;;;;;;;5016423;28;20045;-82
2023/12/19 11:46:03;;;;;;;0.32;0.30;;;;;;;;;;5015544;28;20038;-84
2023/12/19 11:48:38;;;;;;;0.65;0.60;;;;;;;;;;5012588;28;20528;-81
2023/12/19 11:51:04;;;;;;;0.38;0.38;;;;;;;;;;5015890;28;20022;-83
2023/12/19 11:53:30;;;;;;;0.82;0.60;;;;;;;;;;5016966;28;20033;-84
2023/12/19 11:56:09;;;;;;;3.83;0.55;;;;;;;;;;5015656;28;20501;-81
2023/12/19 11:58:35;;;;;;;0.60;0.60;;;;;;;;;;5012697;28;20537;-83
2023/12/19 12:01:02;;;;;;;0.50;0.50;;;;;;;;;;5015794;28;20409;-84
2023/12/19 12:03:28;;;;;;;0.70;0.70;;;;;;;;;;5015488;28;20029;-81
2023/12/19 12:05:54;;;;;;;0.63;0.63;;;;;;;;;;5016277;28;20056;-82
2023/12/19 12:08:20;;;;;;;0.40;0.40;;;;;;;;;;5016036;28;20065;-83
2023/12/19 12:11:06;;;;;;;5.57;0.90;;;;;;;;;;4997820;28;20056;-82
2023/12/19 12:13:35;;;;;;;1.10;0.45;;;;;;;;;;5013191;28;20075;-81
2023/12/19 12:16:02;;;;;;;0.73;0.73;;;;;;;;;;4999203;28;20030;-86
2023/12/19 12:18:30;;;;;;;2.17;0.80;;;;;;;;;;4996832;28;20409;-84
2023/12/19 12:21:08;;;;;;;1.00;0.70;;;;;;;;;;5016085;28;20088;-83
2023/12/19 12:23:33;;;;;;;2.08;0.77;;;;;;;;;;4996695;28;20042;-84
2023/12/19 12:25:58;;;;;;;2.47;0.88;;;;;;;;;;5014976;28;20560;-83
2023/12/19 12:28:28;;;;;;;0.82;0.73;;;;;;;;;;5015150;28;20026;-84
2023/12/19 12:30:59;;;;;;;0.70;0.70;;;;;;;;;;5014945;28;20036;-84
2023/12/19 12:33:25;;;;;;;0.88;0.80;;;;;;;;;;5014739;28;20752;-83
2023/12/19 12:35:51;;;;;;;0.50;0.50;;;;;;;;;;5014832;28;20382;-83
2023/12/19 12:38:18;;;;;;;2.33;0.70;;;;;;;;;;5015080;28;20129;-83
2023/12/19 12:40:59;;;;;;;1.52;0.60;;;;;;;;;;5015790;28;20073;-85
2023/12/19 12:43:25;;;;;;;4.45;0.80;;;;;;;;;;5010462;28;20125;-83
2023/12/19 12:46:07;;;;;;;0.70;0.70;;;;;;;;;;5014781;28;20030;-85
2023/12/19 12:48:33;;;;;;;0.63;0.63;;;;;;;;;;5015210;28;20038;-85
2023/12/19 12:50:58;;;;;;;0.70;0.70;;;;;;;;;;5016158;28;20021;-85
2023/12/19 12:53:24;;;;;;;1.15;0.93;;;;;;;;;;5014621;28;20363;-82
2023/12/19 12:56:08;;;;;;;1.60;1.02;;;;;;;;;;5014596;28;20042;-83
2023/12/19 12:58:35;;;;;;;0.70;0.70;;;;;;;;;;5011924;28;20080;-84
2023/12/19 13:01:00;;;;;;;1.00;0.60;;;;;;;;;;5001652;28;20061;-84
2023/12/19 13:03:27;;;;;;;0.80;0.80;;;;;;;;;;5014806;28;20030;-83
2023/12/19 13:05:53;;;;;;;0.70;0.70;;;;;;;;;;5014818;28;20041;-84
2023/12/19 13:08:18;;;;;;;0.80;0.80;;;;;;;;;;5014330;28;20497;-84
2023/12/19 13:10:44;;;;;;;0.90;0.75;;;;;;;;;;4996483;28;20038;-84
2023/12/19 13:13:09;;;;;;;0.60;0.60;;;;;;;;;;4996633;28;20034;-84
2023/12/19 13:15:34;;;;;;;0.80;0.63;;;;;;;;;;5014800;28;20042;-83
2023/12/19 13:18:00;;;;;;;0.60;0.60;;;;;;;;;;4999043;28;20026;-83
2023/12/19 13:20:25;;;;;;;0.85;0.70;;;;;;;;;;5016132;28;20026;-83
2023/12/19 13:22:51;;;;;;;2.60;0.90;;;;;;;;;;5014537;28;20164;-84
2023/12/19 13:25:16;;;;;;;0.70;0.70;;;;;;;;;;5014595;28;20687;-84
2023/12/19 13:27:42;;;;;;;0.60;0.60;;;;;;;;;;5013227;28;20060;-84
2023/12/19 13:30:08;;;;;;;0.70;0.70;;;;;;;;;;5013485;28;20092;-81
2023/12/19 13:32:39;;;;;;;0.80;0.80;;;;;;;;;;5014469;28;20022;-83
2023/12/19 13:35:06;;;;;;;0.60;0.60;;;;;;;;;;5014224;28;20034;-82
2023/12/19 13:37:31;;;;;;;0.70;0.70;;;;;;;;;;5013579;28;20660;-84
2023/12/19 13:39:56;;;;;;;0.90;0.90;;;;;;;;;;4995556;28;20061;-83
2023/12/19 13:42:22;;;;;;;0.60;0.60;;;;;;;;;;5007415;28;20120;-81
2023/12/19 13:44:47;;;;;;;0.65;0.65;;;;;;;;;;4996196;28;20489;-84
2023/12/19 13:47:12;;;;;;;0.80;0.80;;;;;;;;;;5012832;28;20033;-83
2023/12/19 13:49:38;;;;;;;0.60;0.60;;;;;;;;;;5013624;28;20156;-84
2023/12/19 13:52:03;;;;;;;0.77;0.77;;;;;;;;;;5013066;28;20038;-84
2023/12/19 13:54:29;;;;;;;0.90;0.90;;;;;;;;;;5013459;28;20497;-84
2023/12/19 13:56:54;;;;;;;0.85;0.82;;;;;;;;;;5014046;28;20026;-81
2023/12/19 13:59:19;;;;;;;0.70;0.70;;;;;;;;;;5012987;28;20045;-82
2023/12/19 14:01:45;;;;;;;0.70;0.70;;;;;;;;;;4995146;28;20037;-82
2023/12/19 14:04:11;;;;;;;0.90;0.90;;;;;;;;;;5013087;28;20486;-84
2023/12/19 14:06:37;;;;;;;1.75;1.00;;;;;;;;;;5012750;28;20092;-83
2023/12/19 14:09:02;;;;;;;0.70;0.70;;;;;;;;;;5013341;28;20030;-82
2023/12/19 14:11:28;;;;;;;2.05;0.80;;;;;;;;;;5012451;28;20045;-84
2023/12/19 14:13:53;;;;;;;0.80;0.80;;;;;;;;;;5013245;28;20443;-84
2023/12/19 14:16:18;;;;;;;0.80;0.80;;;;;;;;;;5012855;28;20038;-84
2023/12/19 14:18:44;;;;;;;0.95;0.95;;;;;;;;;;5013132;28;20057;-84
2023/12/19 14:21:10;;;;;;;0.80;0.80;;;;;;;;;;5013192;28;20109;-84
2023/12/19 14:23:35;;;;;;;0.70;0.70;;;;;;;;;;4996298;28;20045;-82
2023/12/19 14:26:01;;;;;;;0.80;0.80;;;;;;;;;;5013820;28;20041;-83
2023/12/19 14:28:26;;;;;;;0.75;0.75;;;;;;;;;;5013221;28;20073;-82
2023/12/19 14:30:51;;;;;;;3.75;0.90;;;;;;;;;;4995807;28;20030;-85
2023/12/19 14:33:17;;;;;;;0.80;0.80;;;;;;;;;;4997396;28;20081;-85
2023/12/19 14:35:43;;;;;;;0.85;0.80;;;;;;;;;;5015424;28;20033;-81
2023/12/19 14:38:09;;;;;;;0.90;0.90;;;;;;;;;;5017346;28;20026;-82
2023/12/19 14:40:34;;;;;;;0.70;0.70;;;;;;;;;;5017084;28;20026;-83
2023/12/19 14:43:00;;;;;;;0.77;0.70;;;;;;;;;;5001577;28;20041;-83